Terminal Aerodrome Forecast
Issued by NWS Chicago, IL

Home | Current Version | Previous Version | Graphics & Text | Print | Product List | Glossary On
Versions: 1 2 3 4 5 6 7 8 9 10 11 12 13 14 15 16 17 18 19 20 21 22 23 24 25 26 27
438
FTUS43 KLOT 262001 AAA
TAFRFD
TAF AMD
KRFD 262001Z 2620/2718 08004KT P6SM BKN120
     FM270500 11005KT P6SM VCSH OVC070
     FM270800 11005KT 3SM -SHRA VCTS OVC020CB
      TEMPO 2709/2711 1 1/2SM TSRA OVC010CB
     FM271200 16006KT P6SM OVC010
     FM271700 20011KT P6SM SCT030 BKN100=

USA.gov is the U.S. government's official web portal to all federal, state and local government web resources and services.